Terminal Aerodrome Forecast
Issued by NWS

Home | Current Version | Previous Version | Text Only | Print | Product List | Glossary On
Versions: 1 2 3 4 5 6 7 8 9 10 11 12 13 14
000
FTUS44 KBMX 300520
TAFTOI
TAF
KTOI 300520Z 3006/3106 00000KT P6SM VCSH SCT015 BKN070
     FM300900 00000KT 4SM BR SCT070
     FM301400 03006KT P6SM SCT040 SCT200
     FM301800 02008KT P6SM VCTS SCT040CB=

USA.gov is the U.S. government's official web portal to all federal, state and local government web resources and services.